sensor_id;sensor_type;location;lat;lon;timestamp;pressure;altitude;pressure_sealevel;temperature;humidity
60611;BME280;46439;51.164;13.572;2023-03-01T00:01:25;101467.35;;;-0.29;77.17
60611;BME280;46439;51.164;13.572;2023-03-01T00:03:55;101471.09;;;-0.25;77.23
60611;BME280;46439;51.164;13.572;2023-03-01T00:06:24;101471.60;;;-0.25;77.29
60611;BME280;46439;51.164;13.572;2023-03-01T00:08:53;101470.91;;;-0.26;77.32
60611;BME280;46439;51.164;13.572;2023-03-01T00:11:25;101476.39;;;-0.25;77.18
60611;BME280;46439;51.164;13.572;2023-03-01T00:13:55;101478.97;;;-0.27;77.41
60611;BME280;46439;51.164;13.572;2023-03-01T00:16:27;101476.20;;;-0.29;77.20
60611;BME280;46439;51.164;13.572;2023-03-01T00:18:56;101468.19;;;-0.28;77.42
60611;BME280;46439;51.164;13.572;2023-03-01T00:21:45;101458.92;;;-0.38;77.05
60611;BME280;46439;51.164;13.572;2023-03-01T00:24:14;101460.39;;;-0.43;77.27
60611;BME280;46439;51.164;13.572;2023-03-01T00:26:45;101462.94;;;-0.44;76.97
60611;BME280;46439;51.164;13.572;2023-03-01T00:29:14;101460.16;;;-0.46;77.23
60611;BME280;46439;51.164;13.572;2023-03-01T00:31:43;101461.17;;;-0.51;76.97
60611;BME280;46439;51.164;13.572;2023-03-01T00:34:11;101462.48;;;-0.61;76.76
60611;BME280;46439;51.164;13.572;2023-03-01T00:36:40;101466.91;;;-0.69;76.65
60611;BME280;46439;51.164;13.572;2023-03-01T00:39:13;101463.80;;;-0.71;76.61
60611;BME280;46439;51.164;13.572;2023-03-01T00:41:42;101457.77;;;-0.70;76.64
60611;BME280;46439;51.164;13.572;2023-03-01T00:44:11;101462.77;;;-0.71;76.83
60611;BME280;46439;51.164;13.572;2023-03-01T00:46:40;101460.23;;;-0.74;76.78
60611;BME280;46439;51.164;13.572;2023-03-01T00:49:08;101454.60;;;-0.75;76.90
60611;BME280;46439;51.164;13.572;2023-03-01T00:51:37;101449.95;;;-0.73;76.99
60611;BME280;46439;51.164;13.572;2023-03-01T00:54:05;101442.09;;;-0.71;76.94
60611;BME280;46439;51.164;13.572;2023-03-01T00:56:34;101441.33;;;-0.70;77.04
60611;BME280;46439;51.164;13.572;2023-03-01T00:59:02;101438.91;;;-0.71;76.90
60611;BME280;46439;51.164;13.572;2023-03-01T01:01:31;101435.88;;;-0.75;76.78
60611;BME280;46439;51.164;13.572;2023-03-01T01:04:02;101433.86;;;-0.85;76.76
60611;BME280;46439;51.164;13.572;2023-03-01T01:06:32;101432.96;;;-0.97;76.31
60611;BME280;46439;51.164;13.572;2023-03-01T01:09:03;101438.92;;;-1.04;76.25
60611;BME280;46439;51.164;13.572;2023-03-01T01:11:32;101434.50;;;-1.08;76.31
60611;BME280;46439;51.164;13.572;2023-03-01T01:14:01;101443.19;;;-1.12;76.26
60611;BME280;46439;51.164;13.572;2023-03-01T01:16:30;101442.30;;;-1.16;76.15
60611;BME280;46439;51.164;13.572;2023-03-01T01:18:58;101443.20;;;-1.21;76.24
60611;BME280;46439;51.164;13.572;2023-03-01T01:21:27;101442.58;;;-1.27;76.01
60611;BME280;46439;51.164;13.572;2023-03-01T01:23:56;101443.89;;;-1.37;75.99
60611;BME280;46439;51.164;13.572;2023-03-01T01:26:26;101448.55;;;-1.47;75.69
60611;BME280;46439;51.164;13.572;2023-03-01T01:28:56;101439.59;;;-1.52;75.55
60611;BME280;46439;51.164;13.572;2023-03-01T01:31:26;101439.62;;;-1.48;75.71
60611;BME280;46439;51.164;13.572;2023-03-01T01:33:55;101430.59;;;-1.48;75.84
60611;BME280;46439;51.164;13.572;2023-03-01T01:36:23;101426.07;;;-1.46;76.09
60611;BME280;46439;51.164;13.572;2023-03-01T01:38:52;101422.83;;;-1.44;76.20
60611;BME280;46439;51.164;13.572;2023-03-01T01:41:22;101414.05;;;-1.46;76.25
60611;BME280;46439;51.164;13.572;2023-03-01T01:44:12;101409.35;;;-1.55;76.02
60611;BME280;46439;51.164;13.572;2023-03-01T01:46:42;101404.55;;;-1.58;75.93
60611;BME280;46439;51.164;13.572;2023-03-01T01:49:19;101411.73;;;-1.62;75.80
60611;BME280;46439;51.164;13.572;2023-03-01T01:51:51;101415.10;;;-1.70;75.71
60611;BME280;46439;51.164;13.572;2023-03-01T01:54:27;101413.80;;;-1.81;75.56
60611;BME280;46439;51.164;13.572;2023-03-01T01:57:00;101416.81;;;-1.90;75.27
60611;BME280;46439;51.164;13.572;2023-03-01T01:59:32;101415.85;;;-1.88;75.60
60611;BME280;46439;51.164;13.572;2023-03-01T02:02:03;101413.67;;;-1.83;75.58
60611;BME280;46439;51.164;13.572;2023-03-01T02:04:34;101414.02;;;-1.78;75.57
60611;BME280;46439;51.164;13.572;2023-03-01T02:07:06;101413.28;;;-1.78;75.90
60611;BME280;46439;51.164;13.572;2023-03-01T02:09:37;101405.05;;;-1.75;76.04
60611;BME280;46439;51.164;13.572;2023-03-01T02:12:24;101403.69;;;-1.71;75.99
60611;BME280;46439;51.164;13.572;2023-03-01T02:15:14;101399.59;;;-1.75;75.98
60611;BME280;46439;51.164;13.572;2023-03-01T02:17:58;101397.13;;;-1.75;76.00
60611;BME280;46439;51.164;13.572;2023-03-01T02:21:00;101402.25;;;-1.80;75.94
60611;BME280;46439;51.164;13.572;2023-03-01T02:23:54;101402.89;;;-1.91;75.58
60611;BME280;46439;51.164;13.572;2023-03-01T02:26:35;101402.02;;;-1.95;75.50
60611;BME280;46439;51.164;13.572;2023-03-01T02:29:28;101404.61;;;-2.02;75.45
60611;BME280;46439;51.164;13.572;2023-03-01T02:31:59;101405.24;;;-2.01;75.37
60611;BME280;46439;51.164;13.572;2023-03-01T02:34:50;101396.00;;;-1.95;75.51
60611;BME280;46439;51.164;13.572;2023-03-01T02:37:22;101388.80;;;-1.87;75.74
60611;BME280;46439;51.164;13.572;2023-03-01T02:39:59;101385.94;;;-1.78;76.04
60611;BME280;46439;51.164;13.572;2023-03-01T02:42:33;101383.63;;;-1.74;76.22
60611;BME280;46439;51.164;13.572;2023-03-01T02:45:06;101380.04;;;-1.76;76.07
60611;BME280;46439;51.164;13.572;2023-03-01T02:47:34;101378.26;;;-1.80;75.95
60611;BME280;46439;51.164;13.572;2023-03-01T02:50:25;101381.74;;;-1.87;75.74
60611;BME280;46439;51.164;13.572;2023-03-01T02:53:04;101380.48;;;-1.91;75.78
60611;BME280;46439;51.164;13.572;2023-03-01T02:55:35;101379.09;;;-1.96;75.65
60611;BME280;46439;51.164;13.572;2023-03-01T02:58:04;101380.55;;;-2.01;75.68
60611;BME280;46439;51.164;13.572;2023-03-01T03:00:36;101376.82;;;-2.05;75.49
60611;BME280;46439;51.164;13.572;2023-03-01T03:03:08;101378.35;;;-2.07;75.70
60611;BME280;46439;51.164;13.572;2023-03-01T03:05:37;101379.56;;;-2.07;75.59
60611;BME280;46439;51.164;13.572;2023-03-01T03:08:06;101379.10;;;-2.04;75.54
60611;BME280;46439;51.164;13.572;2023-03-01T03:10:38;101380.52;;;-2.04;75.73
60611;BME280;46439;51.164;13.572;2023-03-01T03:13:10;101384.67;;;-2.06;75.89
60611;BME280;46439;51.164;13.572;2023-03-01T03:15:40;101378.77;;;-2.04;76.03
60611;BME280;46439;51.164;13.572;2023-03-01T03:18:11;101375.39;;;-2.04;75.78
60611;BME280;46439;51.164;13.572;2023-03-01T03:20:41;101367.83;;;-2.01;75.93
60611;BME280;46439;51.164;13.572;2023-03-01T03:23:10;101365.71;;;-2.05;76.24
60611;BME280;46439;51.164;13.572;2023-03-01T03:25:39;101358.21;;;-2.11;76.04
60611;BME280;46439;51.164;13.572;2023-03-01T03:28:08;101362.48;;;-2.16;75.94
60611;BME280;46439;51.164;13.572;2023-03-01T03:30:40;101361.84;;;-2.22;75.69
60611;BME280;46439;51.164;13.572;2023-03-01T03:33:10;101359.83;;;-2.29;75.76
60611;BME280;46439;51.164;13.572;2023-03-01T03:35:42;101357.05;;;-2.39;75.66
60611;BME280;46439;51.164;13.572;2023-03-01T03:38:13;101358.61;;;-2.47;75.27
60611;BME280;46439;51.164;13.572;2023-03-01T03:40:47;101354.19;;;-2.47;75.34
60611;BME280;46439;51.164;13.572;2023-03-01T03:43:17;101353.95;;;-2.41;75.43
60611;BME280;46439;51.164;13.572;2023-03-01T03:45:47;101353.35;;;-2.35;75.68
60611;BME280;46439;51.164;13.572;2023-03-01T03:48:17;101350.92;;;-2.27;75.85
60611;BME280;46439;51.164;13.572;2023-03-01T03:50:49;101347.48;;;-2.25;75.89
60611;BME280;46439;51.164;13.572;2023-03-01T03:53:18;101345.69;;;-2.33;75.79
60611;BME280;46439;51.164;13.572;2023-03-01T03:55:47;101347.86;;;-2.39;75.55
60611;BME280;46439;51.164;13.572;2023-03-01T03:58:18;101348.46;;;-2.40;75.56
60611;BME280;46439;51.164;13.572;2023-03-01T04:00:50;101346.63;;;-2.39;75.89
60611;BME280;46439;51.164;13.572;2023-03-01T04:03:19;101350.73;;;-2.40;75.80
60611;BME280;46439;51.164;13.572;2023-03-01T04:05:48;101354.60;;;-2.44;75.76
60611;BME280;46439;51.164;13.572;2023-03-01T04:08:21;101359.05;;;-2.45;75.53
60611;BME280;46439;51.164;13.572;2023-03-01T04:10:52;101359.43;;;-2.51;75.62
60611;BME280;46439;51.164;13.572;2023-03-01T04:13:24;101363.13;;;-2.59;75.56
60611;BME280;46439;51.164;13.572;2023-03-01T04:15:54;101372.09;;;-2.63;75.55
60611;BME280;46439;51.164;13.572;2023-03-01T04:18:24;101367.27;;;-2.62;75.46
60611;BME280;46439;51.164;13.572;2023-03-01T04:20:54;101365.38;;;-2.58;75.62
60611;BME280;46439;51.164;13.572;2023-03-01T04:23:23;101364.73;;;-2.56;75.79
60611;BME280;46439;51.164;13.572;2023-03-01T04:25:53;101370.19;;;-2.55;75.60
60611;BME280;46439;51.164;13.572;2023-03-01T04:28:23;101368.21;;;-2.54;75.78
60611;BME280;46439;51.164;13.572;2023-03-01T04:30:57;101363.75;;;-2.53;75.66
60611;BME280;46439;51.164;13.572;2023-03-01T04:33:26;101357.64;;;-2.54;75.57
60611;BME280;46439;51.164;13.572;2023-03-01T04:35:54;101358.61;;;-2.57;75.74
60611;BME280;46439;51.164;13.572;2023-03-01T04:38:23;101356.55;;;-2.54;75.75
60611;BME280;46439;51.164;13.572;2023-03-01T04:40:51;101355.02;;;-2.50;75.88
60611;BME280;46439;51.164;13.572;2023-03-01T04:43:20;101354.48;;;-2.50;75.82
60611;BME280;46439;51.164;13.572;2023-03-01T04:45:48;101355.74;;;-2.51;75.92
60611;BME280;46439;51.164;13.572;2023-03-01T04:48:16;101356.80;;;-2.56;75.72
60611;BME280;46439;51.164;13.572;2023-03-01T04:50:45;101357.61;;;-2.57;75.59
60611;BME280;46439;51.164;13.572;2023-03-01T04:53:13;101357.09;;;-2.58;75.40
60611;BME280;46439;51.164;13.572;2023-03-01T04:55:42;101353.84;;;-2.56;75.72
60611;BME280;46439;51.164;13.572;2023-03-01T04:58:10;101354.25;;;-2.57;75.94
60611;BME280;46439;51.164;13.572;2023-03-01T05:00:39;101354.01;;;-2.60;75.77
60611;BME280;46439;51.164;13.572;2023-03-01T05:03:08;101352.67;;;-2.58;75.72
60611;BME280;46439;51.164;13.572;2023-03-01T05:05:37;101353.97;;;-2.55;75.91
60611;BME280;46439;51.164;13.572;2023-03-01T05:08:07;101353.14;;;-2.56;75.86
60611;BME280;46439;51.164;13.572;2023-03-01T05:10:37;101354.87;;;-2.55;76.03
60611;BME280;46439;51.164;13.572;2023-03-01T05:13:07;101351.52;;;-2.56;76.03
60611;BME280;46439;51.164;13.572;2023-03-01T05:15:35;101349.73;;;-2.60;75.87
60611;BME280;46439;51.164;13.572;2023-03-01T05:18:05;101354.41;;;-2.57;76.26
60611;BME280;46439;51.164;13.572;2023-03-01T05:20:39;101353.05;;;-2.54;76.09
60611;BME280;46439;51.164;13.572;2023-03-01T05:23:08;101353.13;;;-2.52;76.01
60611;BME280;46439;51.164;13.572;2023-03-01T05:25:37;101352.58;;;-2.51;76.00
60611;BME280;46439;51.164;13.572;2023-03-01T05:28:11;101347.27;;;-2.55;76.02
60611;BME280;46439;51.164;13.572;2023-03-01T05:30:40;101347.67;;;-2.57;75.77
60611;BME280;46439;51.164;13.572;2023-03-01T05:33:10;101347.45;;;-2.55;76.05
60611;BME280;46439;51.164;13.572;2023-03-01T05:35:42;101340.52;;;-2.63;76.05
60611;BME280;46439;51.164;13.572;2023-03-01T05:38:12;101339.10;;;-2.67;75.90
60611;BME280;46439;51.164;13.572;2023-03-01T05:40:46;101337.21;;;-2.68;75.63
60611;BME280;46439;51.164;13.572;2023-03-01T05:43:16;101339.05;;;-2.65;75.67
60611;BME280;46439;51.164;13.572;2023-03-01T05:45:45;101339.03;;;-2.61;75.97
60611;BME280;46439;51.164;13.572;2023-03-01T05:48:14;101342.80;;;-2.58;76.04
60611;BME280;46439;51.164;13.572;2023-03-01T05:50:44;101344.02;;;-2.57;76.09
60611;BME280;46439;51.164;13.572;2023-03-01T05:53:15;101345.80;;;-2.54;76.21
60611;BME280;46439;51.164;13.572;2023-03-01T05:55:45;101346.72;;;-2.50;76.19
60611;BME280;46439;51.164;13.572;2023-03-01T05:58:17;101343.91;;;-2.46;76.29
60611;BME280;46439;51.164;13.572;2023-03-01T06:00:48;101347.05;;;-2.44;76.20
60611;BME280;46439;51.164;13.572;2023-03-01T06:03:18;101351.52;;;-2.46;76.34
60611;BME280;46439;51.164;13.572;2023-03-01T06:05:47;101350.81;;;-2.56;76.09
60611;BME280;46439;51.164;13.572;2023-03-01T06:08:15;101351.30;;;-2.68;75.74
60611;BME280;46439;51.164;13.572;2023-03-01T06:10:44;101352.09;;;-2.75;75.75
60611;BME280;46439;51.164;13.572;2023-03-01T06:13:14;101357.81;;;-2.77;75.40
60611;BME280;46439;51.164;13.572;2023-03-01T06:15:43;101350.13;;;-2.78;75.71
60611;BME280;46439;51.164;13.572;2023-03-01T06:18:11;101352.58;;;-2.83;75.62
60611;BME280;46439;51.164;13.572;2023-03-01T06:20:40;101351.41;;;-2.84;75.46
60611;BME280;46439;51.164;13.572;2023-03-01T06:23:08;101353.27;;;-2.83;75.61
60611;BME280;46439;51.164;13.572;2023-03-01T06:25:38;101352.93;;;-2.78;75.48
60611;BME280;46439;51.164;13.572;2023-03-01T06:28:07;101353.92;;;-2.72;75.64
60611;BME280;46439;51.164;13.572;2023-03-01T06:30:35;101353.63;;;-2.74;75.79
60611;BME280;46439;51.164;13.572;2023-03-01T06:33:04;101354.83;;;-2.77;75.68
60611;BME280;46439;51.164;13.572;2023-03-01T06:35:33;101352.92;;;-2.74;75.73
60611;BME280;46439;51.164;13.572;2023-03-01T06:38:03;101357.04;;;-2.66;75.94
60611;BME280;46439;51.164;13.572;2023-03-01T06:40:32;101357.37;;;-2.57;76.18
60611;BME280;46439;51.164;13.572;2023-03-01T06:43:03;101361.52;;;-2.50;76.20
60611;BME280;46439;51.164;13.572;2023-03-01T06:45:32;101364.70;;;-2.41;76.56
60611;BME280;46439;51.164;13.572;2023-03-01T06:48:05;101364.95;;;-2.34;76.48
60611;BME280;46439;51.164;13.572;2023-03-01T06:50:35;101365.20;;;-2.27;76.57
60611;BME280;46439;51.164;13.572;2023-03-01T06:53:04;101363.16;;;-2.20;76.64
60611;BME280;46439;51.164;13.572;2023-03-01T06:55:33;101361.45;;;-2.13;76.65
60611;BME280;46439;51.164;13.572;2023-03-01T06:58:02;101357.27;;;-2.06;76.74
60611;BME280;46439;51.164;13.572;2023-03-01T07:00:32;101356.12;;;-1.99;76.73
60611;BME280;46439;51.164;13.572;2023-03-01T07:03:01;101357.63;;;-1.93;77.10
60611;BME280;46439;51.164;13.572;2023-03-01T07:05:30;101359.75;;;-1.88;76.93
60611;BME280;46439;51.164;13.572;2023-03-01T07:08:01;101357.61;;;-1.84;76.84
60611;BME280;46439;51.164;13.572;2023-03-01T07:10:30;101354.86;;;-1.82;76.90
60611;BME280;46439;51.164;13.572;2023-03-01T07:12:59;101352.73;;;-1.77;76.98
60611;BME280;46439;51.164;13.572;2023-03-01T07:15:28;101354.81;;;-1.72;77.19
60611;BME280;46439;51.164;13.572;2023-03-01T07:17:57;101356.42;;;-1.68;77.12
60611;BME280;46439;51.164;13.572;2023-03-01T07:20:26;101360.05;;;-1.62;77.29
60611;BME280;46439;51.164;13.572;2023-03-01T07:22:55;101359.65;;;-1.57;77.37
60611;BME280;46439;51.164;13.572;2023-03-01T07:25:28;101357.64;;;-1.51;77.31
60611;BME280;46439;51.164;13.572;2023-03-01T07:27:59;101353.06;;;-1.48;77.50
60611;BME280;46439;51.164;13.572;2023-03-01T07:30:29;101342.81;;;-1.43;77.44
60611;BME280;46439;51.164;13.572;2023-03-01T07:32:58;101343.65;;;-1.39;77.45
60611;BME280;46439;51.164;13.572;2023-03-01T07:35:28;101341.30;;;-1.33;77.39
60611;BME280;46439;51.164;13.572;2023-03-01T07:37:58;101340.58;;;-1.37;77.31
60611;BME280;46439;51.164;13.572;2023-03-01T07:40:27;101341.88;;;-1.34;77.39
60611;BME280;46439;51.164;13.572;2023-03-01T07:43:00;101331.09;;;-1.33;77.38
60611;BME280;46439;51.164;13.572;2023-03-01T07:45:30;101329.89;;;-1.34;77.11
60611;BME280;46439;51.164;13.572;2023-03-01T07:47:58;101331.69;;;-1.40;77.12
60611;BME280;46439;51.164;13.572;2023-03-01T07:50:27;101334.98;;;-1.38;77.11
60611;BME280;46439;51.164;13.572;2023-03-01T07:52:56;101335.86;;;-1.30;77.03
60611;BME280;46439;51.164;13.572;2023-03-01T07:55:25;101334.68;;;-1.20;77.36
60611;BME280;46439;51.164;13.572;2023-03-01T07:57:55;101330.67;;;-1.12;77.39
60611;BME280;46439;51.164;13.572;2023-03-01T08:00:53;101331.12;;;-1.07;77.61
60611;BME280;46439;51.164;13.572;2023-03-01T08:03:31;101324.36;;;-0.94;77.71
60611;BME280;46439;51.164;13.572;2023-03-01T08:06:12;101323.69;;;-0.87;77.69
60611;BME280;46439;51.164;13.572;2023-03-01T08:09:03;101325.90;;;-0.82;77.77
60611;BME280;46439;51.164;13.572;2023-03-01T08:11:35;101322.28;;;-0.81;77.61
60611;BME280;46439;51.164;13.572;2023-03-01T08:14:10;101325.08;;;-0.80;77.44
60611;BME280;46439;51.164;13.572;2023-03-01T08:16:50;101321.92;;;-0.80;77.30
60611;BME280;46439;51.164;13.572;2023-03-01T08:19:19;101313.25;;;-0.80;77.21
60611;BME280;46439;51.164;13.572;2023-03-01T08:22:29;101308.13;;;-0.76;77.18
60611;BME280;46439;51.164;13.572;2023-03-01T08:25:01;101305.27;;;-0.72;77.26
60611;BME280;46439;51.164;13.572;2023-03-01T08:27:35;101304.20;;;-0.60;77.56
60611;BME280;46439;51.164;13.572;2023-03-01T08:30:46;101302.34;;;-0.44;77.53
60611;BME280;46439;51.164;13.572;2023-03-01T08:33:15;101298.11;;;-0.33;77.88
60611;BME280;46439;51.164;13.572;2023-03-01T08:36:14;101294.45;;;-0.24;77.87
60611;BME280;46439;51.164;13.572;2023-03-01T08:38:44;101294.43;;;-0.13;77.99
60611;BME280;46439;51.164;13.572;2023-03-01T08:41:22;101294.48;;;-0.06;77.91
60611;BME280;46439;51.164;13.572;2023-03-01T08:43:51;101294.94;;;0.02;78.01
60611;BME280;46439;51.164;13.572;2023-03-01T08:46:21;101297.61;;;0.09;77.91
60611;BME280;46439;51.164;13.572;2023-03-01T08:48:53;101298.64;;;0.16;77.99
60611;BME280;46439;51.164;13.572;2023-03-01T08:51:30;101296.98;;;0.18;78.07
60611;BME280;46439;51.164;13.572;2023-03-01T08:54:04;101298.95;;;0.24;78.00
60611;BME280;46439;51.164;13.572;2023-03-01T08:57:04;101300.96;;;0.30;78.04
60611;BME280;46439;51.164;13.572;2023-03-01T08:59:34;101297.23;;;0.33;77.89
60611;BME280;46439;51.164;13.572;2023-03-01T09:10:44;101281.91;;;0.48;77.87
60611;BME280;46439;51.164;13.572;2023-03-01T09:13:13;101278.73;;;0.52;78.05
60611;BME280;46439;51.164;13.572;2023-03-01T09:15:42;101274.89;;;0.57;78.18
60611;BME280;46439;51.164;13.572;2023-03-01T09:18:10;101270.96;;;0.65;77.99
60611;BME280;46439;51.164;13.572;2023-03-01T09:20:39;101265.89;;;0.73;78.18
60611;BME280;46439;51.164;13.572;2023-03-01T09:23:07;101262.05;;;0.79;78.26
60611;BME280;46439;51.164;13.572;2023-03-01T09:25:37;101263.02;;;0.84;78.21
60611;BME280;46439;51.164;13.572;2023-03-01T09:28:06;101257.24;;;0.92;78.47
60611;BME280;46439;51.164;13.572;2023-03-01T09:30:34;101253.48;;;0.90;78.23
60611;BME280;46439;51.164;13.572;2023-03-01T09:33:03;101250.33;;;0.92;78.08
60611;BME280;46439;51.164;13.572;2023-03-01T09:35:31;101256.54;;;0.92;78.32
60611;BME280;46439;51.164;13.572;2023-03-01T09:38:00;101255.32;;;0.95;78.19
60611;BME280;46439;51.164;13.572;2023-03-01T09:40:28;101249.95;;;0.99;78.46
60611;BME280;46439;51.164;13.572;2023-03-01T09:43:03;101249.52;;;1.03;78.01
60611;BME280;46439;51.164;13.572;2023-03-01T09:45:38;101250.95;;;1.10;78.32
60611;BME280;46439;51.164;13.572;2023-03-01T09:48:15;101249.71;;;1.16;78.30
60611;BME280;46439;51.164;13.572;2023-03-01T09:50:45;101243.91;;;1.21;78.56
60611;BME280;46439;51.164;13.572;2023-03-01T09:53:20;101244.95;;;1.28;78.53
60611;BME280;46439;51.164;13.572;2023-03-01T09:55:53;101246.77;;;1.36;78.84
60611;BME280;46439;51.164;13.572;2023-03-01T09:58:33;101248.52;;;1.47;78.81
60611;BME280;46439;51.164;13.572;2023-03-01T10:01:10;101252.89;;;1.57;79.06
60611;BME280;46439;51.164;13.572;2023-03-01T10:03:48;101255.55;;;1.66;78.79
60611;BME280;46439;51.164;13.572;2023-03-01T10:06:25;101257.34;;;1.72;79.16
60611;BME280;46439;51.164;13.572;2023-03-01T10:08:56;101253.35;;;1.80;79.22
60611;BME280;46439;51.164;13.572;2023-03-01T10:11:30;101244.85;;;1.85;79.07
60611;BME280;46439;51.164;13.572;2023-03-01T10:14:03;101243.17;;;1.89;78.62
60611;BME280;46439;51.164;13.572;2023-03-01T10:16:41;101242.48;;;1.95;78.98
60611;BME280;46439;51.164;13.572;2023-03-01T10:19:17;101240.16;;;2.01;79.12
60611;BME280;46439;51.164;13.572;2023-03-01T10:21:51;101240.02;;;2.10;78.80
60611;BME280;46439;51.164;13.572;2023-03-01T10:24:21;101237.27;;;2.20;79.13
60611;BME280;46439;51.164;13.572;2023-03-01T10:26:55;101236.42;;;2.31;79.50
60611;BME280;46439;51.164;13.572;2023-03-01T10:29:29;101240.58;;;2.41;79.33
60611;BME280;46439;51.164;13.572;2023-03-01T10:32:00;101245.22;;;2.53;79.61
60611;BME280;46439;51.164;13.572;2023-03-01T10:34:32;101239.95;;;2.60;79.47
60611;BME280;46439;51.164;13.572;2023-03-01T10:37:08;101236.85;;;2.67;79.46
60611;BME280;46439;51.164;13.572;2023-03-01T10:39:37;101232.11;;;2.75;79.69
60611;BME280;46439;51.164;13.572;2023-03-01T10:42:27;101229.59;;;2.81;79.71
60611;BME280;46439;51.164;13.572;2023-03-01T10:44:56;101224.52;;;2.88;79.57
60611;BME280;46439;51.164;13.572;2023-03-01T10:47:27;101223.56;;;2.95;79.60
60611;BME280;46439;51.164;13.572;2023-03-01T10:49:58;101223.12;;;3.04;79.87
60611;BME280;46439;51.164;13.572;2023-03-01T10:52:31;101221.27;;;3.11;79.97
60611;BME280;46439;51.164;13.572;2023-03-01T10:54:59;101212.15;;;3.17;80.02
60611;BME280;46439;51.164;13.572;2023-03-01T10:57:38;101206.45;;;3.23;79.75
60611;BME280;46439;51.164;13.572;2023-03-01T11:00:25;101202.01;;;3.28;80.05
60611;BME280;46439;51.164;13.572;2023-03-01T11:03:12;101200.83;;;3.38;80.03
60611;BME280;46439;51.164;13.572;2023-03-01T11:05:53;101197.94;;;3.47;80.14
60611;BME280;46439;51.164;13.572;2023-03-01T11:08:37;101194.95;;;3.54;80.14
60611;BME280;46439;51.164;13.572;2023-03-01T11:11:23;101194.13;;;3.59;79.93
60611;BME280;46439;51.164;13.572;2023-03-01T11:13:58;101195.34;;;3.67;80.09
60611;BME280;46439;51.164;13.572;2023-03-01T11:16:33;101195.81;;;3.71;79.79
60611;BME280;46439;51.164;13.572;2023-03-01T11:19:16;101196.77;;;3.72;79.84
60611;BME280;46439;51.164;13.572;2023-03-01T11:21:59;101200.16;;;3.75;79.87
60611;BME280;46439;51.164;13.572;2023-03-01T11:24:36;101198.51;;;3.76;79.57
60611;BME280;46439;51.164;13.572;2023-03-01T11:27:17;101196.26;;;3.77;79.59
60611;BME280;46439;51.164;13.572;2023-03-01T11:29:50;101194.54;;;3.81;79.64
60611;BME280;46439;51.164;13.572;2023-03-01T11:32:23;101195.32;;;3.83;79.63
60611;BME280;46439;51.164;13.572;2023-03-01T11:34:51;101190.61;;;3.84;79.62
60611;BME280;46439;51.164;13.572;2023-03-01T11:37:31;101187.21;;;3.90;79.82
60611;BME280;46439;51.164;13.572;2023-03-01T11:40:10;101183.27;;;3.98;79.74
60611;BME280;46439;51.164;13.572;2023-03-01T11:42:48;101181.90;;;4.07;79.63
60611;BME280;46439;51.164;13.572;2023-03-01T11:45:18;101179.77;;;4.13;79.78
60611;BME280;46439;51.164;13.572;2023-03-01T11:48:00;101176.43;;;4.15;79.67
60611;BME280;46439;51.164;13.572;2023-03-01T11:50:38;101170.02;;;4.19;80.00
60611;BME280;46439;51.164;13.572;2023-03-01T11:53:23;101170.43;;;4.26;79.71
60611;BME280;46439;51.164;13.572;2023-03-01T11:56:03;101168.44;;;4.34;79.59
60611;BME280;46439;51.164;13.572;2023-03-01T11:58:47;101161.50;;;4.41;79.77
60611;BME280;46439;51.164;13.572;2023-03-01T12:01:30;101158.65;;;4.49;79.86
60611;BME280;46439;51.164;13.572;2023-03-01T12:04:26;101149.16;;;4.52;79.71
60611;BME280;46439;51.164;13.572;2023-03-01T12:07:01;101145.63;;;4.57;79.63
60611;BME280;46439;51.164;13.572;2023-03-01T12:09:41;101147.65;;;4.66;79.77
60611;BME280;46439;51.164;13.572;2023-03-01T12:12:45;101144.63;;;4.78;79.93
60611;BME280;46439;51.164;13.572;2023-03-01T12:15:53;101137.31;;;4.85;80.14
60611;BME280;46439;51.164;13.572;2023-03-01T12:18:36;101134.72;;;4.89;79.98
60611;BME280;46439;51.164;13.572;2023-03-01T12:21:17;101134.08;;;4.91;79.79
60611;BME280;46439;51.164;13.572;2023-03-01T12:24:13;101131.23;;;4.95;79.77
60611;BME280;46439;51.164;13.572;2023-03-01T12:26:57;101132.45;;;5.03;79.84
60611;BME280;46439;51.164;13.572;2023-03-01T12:29:30;101129.02;;;5.13;80.00
60611;BME280;46439;51.164;13.572;2023-03-01T12:32:31;101124.04;;;5.20;80.01
60611;BME280;46439;51.164;13.572;2023-03-01T12:35:16;101125.09;;;5.25;80.01
60611;BME280;46439;51.164;13.572;2023-03-01T12:37:55;101122.90;;;5.26;79.81
60611;BME280;46439;51.164;13.572;2023-03-01T12:40:42;101119.64;;;5.22;79.76
60611;BME280;46439;51.164;13.572;2023-03-01T12:43:24;101116.44;;;5.19;79.37
60611;BME280;46439;51.164;13.572;2023-03-01T12:48:58;101106.79;;;5.16;79.53
60611;BME280;46439;51.164;13.572;2023-03-01T12:51:31;101103.33;;;5.20;79.34
60611;BME280;46439;51.164;13.572;2023-03-01T12:54:05;101100.63;;;5.25;79.50
60611;BME280;46439;51.164;13.572;2023-03-01T12:56:37;101098.54;;;5.27;79.58
60611;BME280;46439;51.164;13.572;2023-03-01T12:59:13;101099.59;;;5.30;79.52
60611;BME280;46439;51.164;13.572;2023-03-01T13:01:51;101092.52;;;5.31;79.47
60611;BME280;46439;51.164;13.572;2023-03-01T13:04:43;101092.69;;;5.31;79.40
60611;BME280;46439;51.164;13.572;2023-03-01T13:07:25;101089.70;;;5.30;79.18
60611;BME280;46439;51.164;13.572;2023-03-01T13:10:07;101089.68;;;5.31;79.23
60611;BME280;46439;51.164;13.572;2023-03-01T13:13:00;101085.41;;;5.30;79.16
60611;BME280;46439;51.164;13.572;2023-03-01T13:15:35;101087.23;;;5.32;79.08
60611;BME280;46439;51.164;13.572;2023-03-01T13:18:25;101089.92;;;5.35;79.19
60611;BME280;46439;51.164;13.572;2023-03-01T13:20:56;101091.18;;;5.35;79.15
60611;BME280;46439;51.164;13.572;2023-03-01T13:23:29;101089.57;;;5.32;79.06
60611;BME280;46439;51.164;13.572;2023-03-01T13:26:05;101086.92;;;5.34;79.03
60611;BME280;46439;51.164;13.572;2023-03-01T13:28:55;101084.55;;;5.39;79.23